sensor_id;sensor_type;location;lat;lon;timestamp;P1;durP1;ratioP1;P2;durP2;ratioP2
50651;SDS011;66928;52.086;5.240;2023-03-01T03:00:05;18.2;;;16.2;;
50651;SDS011;66928;52.086;5.240;2023-03-01T05:41:28;19.2;;;16.7;;
50651;SDS011;66928;52.086;5.240;2023-03-01T06:25:02;20.11;;;17.3;;
50651;SDS011;66928;52.086;5.240;2023-03-01T06:26:40;22.2;;;18.5;;
50651;SDS011;66928;52.086;5.240;2023-03-01T06:28:16;22.5;;;18.5;;
50651;SDS011;66928;52.086;5.240;2023-03-01T06:31:29;20.0;;;17.41;;
50651;SDS011;66928;52.086;5.240;2023-03-01T06:33:05;20.3;;;17.41;;
50651;SDS011;66928;52.086;5.240;2023-03-01T06:34:41;17.8;;;15.4;;
50651;SDS011;66928;52.086;5.240;2023-03-01T06:37:53;20.41;;;17.7;;
50651;SDS011;66928;52.086;5.240;2023-03-01T06:39:30;19.91;;;15.7;;
50651;SDS011;66928;52.086;5.240;2023-03-01T06:41:06;18.8;;;15.8;;
50651;SDS011;66928;52.086;5.240;2023-03-01T06:44:25;19.41;;;15.6;;
50651;SDS011;66928;52.086;5.240;2023-03-01T06:46:03;19.11;;;16.4;;
50651;SDS011;66928;52.086;5.240;2023-03-01T06:47:40;20.5;;;17.7;;
50651;SDS011;66928;52.086;5.240;2023-03-01T06:49:16;22.7;;;18.11;;
50651;SDS011;66928;52.086;5.240;2023-03-01T06:52:30;21.2;;;18.3;;
50651;SDS011;66928;52.086;5.240;2023-03-01T06:54:07;21.2;;;17.7;;
50651;SDS011;66928;52.086;5.240;2023-03-01T06:55:43;21.2;;;17.61;;
50651;SDS011;66928;52.086;5.240;2023-03-01T06:58:55;22.9;;;18.2;;
50651;SDS011;66928;52.086;5.240;2023-03-01T07:00:31;22.8;;;18.2;;
50651;SDS011;66928;52.086;5.240;2023-03-01T07:02:09;18.8;;;16.8;;
50651;SDS011;66928;52.086;5.240;2023-03-01T07:03:46;22.8;;;17.5;;
50651;SDS011;66928;52.086;5.240;2023-03-01T07:06:59;22.6;;;18.2;;
50651;SDS011;66928;52.086;5.240;2023-03-01T07:08:35;19.2;;;17.11;;
50651;SDS011;66928;52.086;5.240;2023-03-01T07:10:11;21.6;;;18.41;;
50651;SDS011;66928;52.086;5.240;2023-03-01T07:13:25;21.7;;;17.41;;
50651;SDS011;66928;52.086;5.240;2023-03-01T07:15:02;22.3;;;18.0;;
50651;SDS011;66928;52.086;5.240;2023-03-01T07:16:40;20.7;;;17.5;;
50651;SDS011;66928;52.086;5.240;2023-03-01T07:19:52;20.41;;;17.3;;
50651;SDS011;66928;52.086;5.240;2023-03-01T07:21:29;22.0;;;17.3;;
50651;SDS011;66928;52.086;5.240;2023-03-01T07:23:05;20.7;;;16.8;;
50651;SDS011;66928;52.086;5.240;2023-03-01T07:24:43;19.11;;;16.3;;
50651;SDS011;66928;52.086;5.240;2023-03-01T07:27:55;19.5;;;16.2;;
50651;SDS011;66928;52.086;5.240;2023-03-01T07:29:31;18.7;;;16.4;;
50651;SDS011;66928;52.086;5.240;2023-03-01T07:31:07;19.8;;;16.8;;
50651;SDS011;66928;52.086;5.240;2023-03-01T07:34:20;19.3;;;16.0;;
50651;SDS011;66928;52.086;5.240;2023-03-01T07:35:56;19.41;;;16.61;;
50651;SDS011;66928;52.086;5.240;2023-03-01T07:37:33;18.0;;;15.4;;
50651;SDS011;66928;52.086;5.240;2023-03-01T07:40:46;22.7;;;18.0;;
50651;SDS011;66928;52.086;5.240;2023-03-01T07:42:23;21.6;;;18.61;;
50651;SDS011;66928;52.086;5.240;2023-03-01T07:43:59;21.3;;;17.11;;
50651;SDS011;66928;52.086;5.240;2023-03-01T07:45:35;20.0;;;16.5;;
50651;SDS011;66928;52.086;5.240;2023-03-01T07:48:47;21.5;;;17.8;;
50651;SDS011;66928;52.086;5.240;2023-03-01T07:50:23;20.3;;;16.9;;
50651;SDS011;66928;52.086;5.240;2023-03-01T07:51:59;23.1;;;17.11;;
50651;SDS011;66928;52.086;5.240;2023-03-01T07:55:13;21.3;;;17.41;;
50651;SDS011;66928;52.086;5.240;2023-03-01T07:56:50;22.5;;;17.7;;
50651;SDS011;66928;52.086;5.240;2023-03-01T07:58:26;23.4;;;18.41;;
50651;SDS011;66928;52.086;5.240;2023-03-01T08:01:40;20.41;;;16.8;;
50651;SDS011;66928;52.086;5.240;2023-03-01T08:03:17;19.8;;;17.0;;
50651;SDS011;66928;52.086;5.240;2023-03-01T08:04:53;21.0;;;16.5;;
50651;SDS011;66928;52.086;5.240;2023-03-01T08:06:29;19.3;;;16.5;;
50651;SDS011;66928;52.086;5.240;2023-03-01T08:09:41;19.0;;;16.11;;
50651;SDS011;66928;52.086;5.240;2023-03-01T08:11:17;18.91;;;16.3;;
50651;SDS011;66928;52.086;5.240;2023-03-01T08:12:54;19.91;;;16.5;;
50651;SDS011;66928;52.086;5.240;2023-03-01T08:16:07;21.2;;;16.9;;
50651;SDS011;66928;52.086;5.240;2023-03-01T08:17:45;18.91;;;15.8;;
50651;SDS011;66928;52.086;5.240;2023-03-01T08:19:25;17.3;;;14.9;;
50651;SDS011;66928;52.086;5.240;2023-03-01T08:22:40;19.2;;;15.0;;
50651;SDS011;66928;52.086;5.240;2023-03-01T08:24:16;19.61;;;15.3;;
50651;SDS011;66928;52.086;5.240;2023-03-01T08:25:52;19.2;;;15.8;;
50651;SDS011;66928;52.086;5.240;2023-03-01T08:27:28;21.3;;;16.61;;
50651;SDS011;66928;52.086;5.240;2023-03-01T08:30:40;19.41;;;16.0;;
50651;SDS011;66928;52.086;5.240;2023-03-01T08:32:17;19.3;;;14.5;;
50651;SDS011;66928;52.086;5.240;2023-03-01T08:33:53;15.7;;;14.0;;
50651;SDS011;66928;52.086;5.240;2023-03-01T08:37:09;15.0;;;12.9;;
50651;SDS011;66928;52.086;5.240;2023-03-01T08:38:45;17.61;;;13.8;;
50651;SDS011;66928;52.086;5.240;2023-03-01T08:40:21;16.8;;;14.3;;
50651;SDS011;66928;52.086;5.240;2023-03-01T08:43:34;16.8;;;14.3;;
50651;SDS011;66928;52.086;5.240;2023-03-01T08:45:10;12.4;;;11.1;;
50651;SDS011;66928;52.086;5.240;2023-03-01T08:46:47;13.8;;;11.1;;
50651;SDS011;66928;52.086;5.240;2023-03-01T08:48:23;14.4;;;11.6;;
50651;SDS011;66928;52.086;5.240;2023-03-01T08:51:38;13.0;;;10.21;;
50651;SDS011;66928;52.086;5.240;2023-03-01T08:53:15;11.0;;;9.9;;
50651;SDS011;66928;52.086;5.240;2023-03-01T08:54:51;10.9;;;8.9;;
50651;SDS011;66928;52.086;5.240;2023-03-01T08:58:03;9.21;;;8.1;;
50651;SDS011;66928;52.086;5.240;2023-03-01T08:59:39;9.5;;;8.1;;
50651;SDS011;66928;52.086;5.240;2023-03-01T09:01:16;9.9;;;8.1;;
50651;SDS011;66928;52.086;5.240;2023-03-01T09:02:55;10.21;;;8.5;;
50651;SDS011;66928;52.086;5.240;2023-03-01T09:06:07;9.31;;;8.31;;
50651;SDS011;66928;52.086;5.240;2023-03-01T09:07:44;9.31;;;8.1;;
50651;SDS011;66928;52.086;5.240;2023-03-01T09:09:20;10.0;;;8.5;;
50651;SDS011;66928;52.086;5.240;2023-03-01T09:12:32;10.5;;;8.71;;
50651;SDS011;66928;52.086;5.240;2023-03-01T09:14:09;11.1;;;8.1;;
50651;SDS011;66928;52.086;5.240;2023-03-01T09:15:45;9.5;;;7.9;;
50651;SDS011;66928;52.086;5.240;2023-03-01T09:18:57;9.21;;;7.1;;
50651;SDS011;66928;52.086;5.240;2023-03-01T09:20:33;9.21;;;7.5;;
50651;SDS011;66928;52.086;5.240;2023-03-01T09:22:09;9.31;;;7.2;;
50651;SDS011;66928;52.086;5.240;2023-03-01T09:25:24;9.4;;;7.4;;
50651;SDS011;66928;52.086;5.240;2023-03-01T09:27:00;8.1;;;6.2;;
50651;SDS011;66928;52.086;5.240;2023-03-01T09:28:36;10.0;;;6.6;;
50651;SDS011;66928;52.086;5.240;2023-03-01T09:30:13;6.7;;;5.9;;
50651;SDS011;66928;52.086;5.240;2023-03-01T09:33:26;7.5;;;5.7;;
50651;SDS011;66928;52.086;5.240;2023-03-01T09:35:03;6.5;;;5.8;;
50651;SDS011;66928;52.086;5.240;2023-03-01T09:36:40;6.3;;;5.7;;
50651;SDS011;66928;52.086;5.240;2023-03-01T09:39:52;5.8;;;5.2;;
50651;SDS011;66928;52.086;5.240;2023-03-01T09:41:33;6.4;;;5.2;;
50651;SDS011;66928;52.086;5.240;2023-03-01T09:43:34;4.91;;;4.41;;
50651;SDS011;66928;52.086;5.240;2023-03-01T09:45:26;6.2;;;4.3;;
50651;SDS011;66928;52.086;5.240;2023-03-01T09:47:09;5.3;;;4.3;;
50651;SDS011;66928;52.086;5.240;2023-03-01T09:50:38;4.7;;;4.2;;
50651;SDS011;66928;52.086;5.240;2023-03-01T09:52:20;4.8;;;4.0;;
50651;SDS011;66928;52.086;5.240;2023-03-01T09:54:05;4.8;;;4.2;;
50651;SDS011;66928;52.086;5.240;2023-03-01T09:55:43;5.3;;;4.3;;
50651;SDS011;66928;52.086;5.240;2023-03-01T09:57:25;6.2;;;4.0;;
50651;SDS011;66928;52.086;5.240;2023-03-01T10:00:59;7.9;;;4.91;;
50651;SDS011;66928;52.086;5.240;2023-03-01T10:02:47;7.9;;;5.2;;
50651;SDS011;66928;52.086;5.240;2023-03-01T10:04:28;5.4;;;4.1;;
50651;SDS011;66928;52.086;5.240;2023-03-01T10:06:19;5.11;;;4.3;;
50651;SDS011;66928;52.086;5.240;2023-03-01T10:08:01;6.3;;;4.41;;
50651;SDS011;66928;52.086;5.240;2023-03-01T10:10:01;6.9;;;4.0;;
50651;SDS011;66928;52.086;5.240;2023-03-01T10:13:22;5.7;;;4.2;;
50651;SDS011;66928;52.086;5.240;2023-03-01T10:15:04;6.1;;;4.5;;
50651;SDS011;66928;52.086;5.240;2023-03-01T10:16:48;4.3;;;3.9;;
50651;SDS011;66928;52.086;5.240;2023-03-01T10:18:29;7.0;;;4.1;;
50651;SDS011;66928;52.086;5.240;2023-03-01T10:22:00;5.9;;;4.0;;
50651;SDS011;66928;52.086;5.240;2023-03-01T10:23:45;5.9;;;4.1;;
50651;SDS011;66928;52.086;5.240;2023-03-01T10:25:32;5.7;;;4.41;;
50651;SDS011;66928;52.086;5.240;2023-03-01T10:27:22;6.1;;;4.41;;
50651;SDS011;66928;52.086;5.240;2023-03-01T10:29:01;6.4;;;4.5;;
50651;SDS011;66928;52.086;5.240;2023-03-01T10:32:17;5.3;;;4.7;;
50651;SDS011;66928;52.086;5.240;2023-03-01T10:35:32;6.5;;;4.91;;
50651;SDS011;66928;52.086;5.240;2023-03-01T10:37:11;8.1;;;5.0;;
50651;SDS011;66928;52.086;5.240;2023-03-01T10:40:27;6.2;;;4.8;;
50651;SDS011;66928;52.086;5.240;2023-03-01T10:42:04;6.1;;;4.2;;
50651;SDS011;66928;52.086;5.240;2023-03-01T10:43:54;5.7;;;4.2;;
50651;SDS011;66928;52.086;5.240;2023-03-01T10:45:34;5.8;;;4.2;;
50651;SDS011;66928;52.086;5.240;2023-03-01T10:49:05;7.6;;;3.7;;
50651;SDS011;66928;52.086;5.240;2023-03-01T10:51:05;5.4;;;3.6;;
50651;SDS011;66928;52.086;5.240;2023-03-01T10:52:42;5.11;;;3.7;;
50651;SDS011;66928;52.086;5.240;2023-03-01T10:54:34;4.91;;;3.9;;
50651;SDS011;66928;52.086;5.240;2023-03-01T10:56:10;5.11;;;4.0;;
50651;SDS011;66928;52.086;5.240;2023-03-01T10:59:26;5.7;;;3.8;;
50651;SDS011;66928;52.086;5.240;2023-03-01T11:01:25;5.0;;;3.8;;
50651;SDS011;66928;52.086;5.240;2023-03-01T11:03:08;4.7;;;4.0;;
50651;SDS011;66928;52.086;5.240;2023-03-01T11:05:17;4.8;;;3.8;;
50651;SDS011;66928;52.086;5.240;2023-03-01T11:06:58;5.0;;;4.1;;
50651;SDS011;66928;52.086;5.240;2023-03-01T11:08:37;5.2;;;4.2;;
50651;SDS011;66928;52.086;5.240;2023-03-01T11:11:57;4.7;;;4.2;;
50651;SDS011;66928;52.086;5.240;2023-03-01T11:13:36;6.4;;;4.5;;
50651;SDS011;66928;52.086;5.240;2023-03-01T11:15:25;4.91;;;4.0;;
50651;SDS011;66928;52.086;5.240;2023-03-01T11:17:04;4.8;;;3.9;;
50651;SDS011;66928;52.086;5.240;2023-03-01T11:20:33;5.9;;;3.9;;
50651;SDS011;66928;52.086;5.240;2023-03-01T11:22:12;5.4;;;4.0;;
50651;SDS011;66928;52.086;5.240;2023-03-01T11:23:53;5.6;;;4.2;;
50651;SDS011;66928;52.086;5.240;2023-03-01T11:25:30;4.41;;;4.0;;
50651;SDS011;66928;52.086;5.240;2023-03-01T11:29:00;5.5;;;4.41;;
50651;SDS011;66928;52.086;5.240;2023-03-01T11:30:43;6.2;;;4.3;;
50651;SDS011;66928;52.086;5.240;2023-03-01T11:32:29;4.8;;;4.0;;
50651;SDS011;66928;52.086;5.240;2023-03-01T11:34:24;4.91;;;4.1;;
50651;SDS011;66928;52.086;5.240;2023-03-01T11:36:26;5.4;;;3.9;;
50651;SDS011;66928;52.086;5.240;2023-03-01T11:38:12;5.5;;;3.8;;
50651;SDS011;66928;52.086;5.240;2023-03-01T11:39:58;6.3;;;3.9;;
50651;SDS011;66928;52.086;5.240;2023-03-01T11:43:26;5.6;;;3.6;;
50651;SDS011;66928;52.086;5.240;2023-03-01T11:45:10;5.3;;;3.8;;
50651;SDS011;66928;52.086;5.240;2023-03-01T11:46:51;5.0;;;3.5;;
50651;SDS011;66928;52.086;5.240;2023-03-01T11:50:34;4.61;;;3.4;;
50651;SDS011;66928;52.086;5.240;2023-03-01T11:52:18;3.8;;;3.0;;
50651;SDS011;66928;52.086;5.240;2023-03-01T11:54:09;4.1;;;3.3;;
50651;SDS011;66928;52.086;5.240;2023-03-01T11:56:04;4.0;;;3.2;;
50651;SDS011;66928;52.086;5.240;2023-03-01T11:58:00;4.61;;;3.4;;
50651;SDS011;66928;52.086;5.240;2023-03-01T12:00:06;5.6;;;3.4;;
50651;SDS011;66928;52.086;5.240;2023-03-01T12:02:02;4.61;;;3.2;;
50651;SDS011;66928;52.086;5.240;2023-03-01T12:05:06;4.41;;;3.2;;
50651;SDS011;66928;52.086;5.240;2023-03-01T12:07:56;4.41;;;3.2;;
50651;SDS011;66928;52.086;5.240;2023-03-01T12:09:48;4.0;;;3.2;;
50651;SDS011;66928;52.086;5.240;2023-03-01T12:11:47;4.5;;;3.4;;
50651;SDS011;66928;52.086;5.240;2023-03-01T12:13:43;3.3;;;3.0;;
50651;SDS011;66928;52.086;5.240;2023-03-01T12:15:50;3.5;;;3.2;;
50651;SDS011;66928;52.086;5.240;2023-03-01T12:17:54;4.3;;;3.0;;
50651;SDS011;66928;52.086;5.240;2023-03-01T12:19:54;3.6;;;3.2;;
50651;SDS011;66928;52.086;5.240;2023-03-01T12:21:52;4.2;;;3.1;;
50651;SDS011;66928;52.086;5.240;2023-03-01T12:23:50;3.7;;;3.0;;
50651;SDS011;66928;52.086;5.240;2023-03-01T12:26:57;3.7;;;3.3;;
50651;SDS011;66928;52.086;5.240;2023-03-01T12:28:50;5.9;;;3.6;;
50651;SDS011;66928;52.086;5.240;2023-03-01T12:31:05;4.1;;;3.5;;
50651;SDS011;66928;52.086;5.240;2023-03-01T12:33:50;3.8;;;3.4;;
50651;SDS011;66928;52.086;5.240;2023-03-01T12:35:36;5.2;;;3.7;;
50651;SDS011;66928;52.086;5.240;2023-03-01T12:37:29;4.7;;;3.5;;
50651;SDS011;66928;52.086;5.240;2023-03-01T12:39:24;3.7;;;3.4;;
50651;SDS011;66928;52.086;5.240;2023-03-01T12:41:21;4.61;;;3.6;;
50651;SDS011;66928;52.086;5.240;2023-03-01T12:43:50;4.91;;;3.6;;
50651;SDS011;66928;52.086;5.240;2023-03-01T12:45:42;4.61;;;3.9;;
50651;SDS011;66928;52.086;5.240;2023-03-01T12:47:35;5.8;;;3.9;;
50651;SDS011;66928;52.086;5.240;2023-03-01T12:49:32;4.3;;;3.9;;
50651;SDS011;66928;52.086;5.240;2023-03-01T12:51:15;5.6;;;3.7;;
50651;SDS011;66928;52.086;5.240;2023-03-01T12:54:34;4.0;;;3.6;;
50651;SDS011;66928;52.086;5.240;2023-03-01T12:56:13;4.61;;;4.2;;
50651;SDS011;66928;52.086;5.240;2023-03-01T12:57:56;5.0;;;3.7;;
50651;SDS011;66928;52.086;5.240;2023-03-01T12:59:42;6.1;;;4.2;;
50651;SDS011;66928;52.086;5.240;2023-03-01T13:01:31;5.0;;;4.0;;
50651;SDS011;66928;52.086;5.240;2023-03-01T13:05:07;5.7;;;3.9;;
50651;SDS011;66928;52.086;5.240;2023-03-01T13:07:04;5.4;;;3.7;;
50651;SDS011;66928;52.086;5.240;2023-03-01T13:08:58;4.2;;;3.8;;
50651;SDS011;66928;52.086;5.240;2023-03-01T13:10:45;4.91;;;3.8;;
50651;SDS011;66928;52.086;5.240;2023-03-01T13:13:29;5.3;;;3.6;;
50651;SDS011;66928;52.086;5.240;2023-03-01T13:15:13;4.3;;;3.9;;
50651;SDS011;66928;52.086;5.240;2023-03-01T13:17:01;4.1;;;3.7;;
50651;SDS011;66928;52.086;5.240;2023-03-01T13:18:37;5.0;;;3.6;;
50651;SDS011;66928;52.086;5.240;2023-03-01T13:20:14;4.61;;;3.6;;
50651;SDS011;66928;52.086;5.240;2023-03-01T13:23:32;4.5;;;3.5;;
50651;SDS011;66928;52.086;5.240;2023-03-01T13:25:13;4.2;;;3.8;;
50651;SDS011;66928;52.086;5.240;2023-03-01T13:27:23;4.5;;;3.5;;
50651;SDS011;66928;52.086;5.240;2023-03-01T13:29:00;4.5;;;3.9;;
50651;SDS011;66928;52.086;5.240;2023-03-01T13:32:18;5.5;;;4.0;;
50651;SDS011;66928;52.086;5.240;2023-03-01T13:33:57;4.41;;;3.8;;
50651;SDS011;66928;52.086;5.240;2023-03-01T13:35:42;4.5;;;3.8;;
50651;SDS011;66928;52.086;5.240;2023-03-01T13:37:21;4.3;;;3.9;;
50651;SDS011;66928;52.086;5.240;2023-03-01T13:39:29;5.6;;;4.0;;
50651;SDS011;66928;52.086;5.240;2023-03-01T13:41:16;6.6;;;4.1;;
50651;SDS011;66928;52.086;5.240;2023-03-01T13:43:27;5.2;;;4.41;;
50651;SDS011;66928;52.086;5.240;2023-03-01T13:46:59;4.8;;;4.2;;
50651;SDS011;66928;52.086;5.240;2023-03-01T13:48:50;5.6;;;4.0;;
50651;SDS011;66928;52.086;5.240;2023-03-01T13:50:32;5.6;;;4.0;;
50651;SDS011;66928;52.086;5.240;2023-03-01T13:52:25;5.7;;;4.2;;
50651;SDS011;66928;52.086;5.240;2023-03-01T13:54:16;4.5;;;4.1;;
50651;SDS011;66928;52.086;5.240;2023-03-01T13:56:07;5.0;;;4.3;;
50651;SDS011;66928;52.086;5.240;2023-03-01T14:01:05;5.2;;;4.2;;
50651;SDS011;66928;52.086;5.240;2023-03-01T14:02:58;4.8;;;4.0;;
50651;SDS011;66928;52.086;5.240;2023-03-01T14:04:38;5.7;;;4.3;;
50651;SDS011;66928;52.086;5.240;2023-03-01T14:06:15;4.8;;;3.8;;
50651;SDS011;66928;52.086;5.240;2023-03-01T14:09:31;5.5;;;3.9;;
50651;SDS011;66928;52.086;5.240;2023-03-01T14:11:23;5.3;;;3.9;;
50651;SDS011;66928;52.086;5.240;2023-03-01T14:14:04;5.2;;;4.0;;
50651;SDS011;66928;52.086;5.240;2023-03-01T14:16:40;4.61;;;3.9;;
50651;SDS011;66928;52.086;5.240;2023-03-01T14:18:35;5.0;;;3.8;;
50651;SDS011;66928;52.086;5.240;2023-03-01T14:20:21;5.7;;;4.2;;
50651;SDS011;66928;52.086;5.240;2023-03-01T14:22:02;5.11;;;3.9;;
50651;SDS011;66928;52.086;5.240;2023-03-01T14:23:48;6.9;;;4.41;;
50651;SDS011;66928;52.086;5.240;2023-03-01T14:25:26;6.2;;;4.2;;
50651;SDS011;66928;52.086;5.240;2023-03-01T14:28:46;6.2;;;4.41;;
50651;SDS011;66928;52.086;5.240;2023-03-01T14:30:25;5.5;;;4.3;;
50651;SDS011;66928;52.086;5.240;2023-03-01T14:32:09;5.5;;;4.0;;
50651;SDS011;66928;52.086;5.240;2023-03-01T14:33:47;4.61;;;3.9;;
50651;SDS011;66928;52.086;5.240;2023-03-01T14:35:32;4.3;;;3.9;;
50651;SDS011;66928;52.086;5.240;2023-03-01T14:38:57;6.0;;;4.2;;
50651;SDS011;66928;52.086;5.240;2023-03-01T14:40:34;6.6;;;4.2;;
50651;SDS011;66928;52.086;5.240;2023-03-01T14:42:12;5.2;;;4.41;;
50651;SDS011;66928;52.086;5.240;2023-03-01T14:45:30;5.11;;;3.8;;
50651;SDS011;66928;52.086;5.240;2023-03-01T14:47:06;6.7;;;4.0;;
50651;SDS011;66928;52.086;5.240;2023-03-01T14:48:49;5.4;;;3.7;;
50651;SDS011;66928;52.086;5.240;2023-03-01T14:50:27;4.3;;;3.8;;
50651;SDS011;66928;52.086;5.240;2023-03-01T14:53:54;4.2;;;3.8;;
50651;SDS011;66928;52.086;5.240;2023-03-01T14:55:33;6.3;;;3.9;;
50651;SDS011;66928;52.086;5.240;2023-03-01T14:57:14;5.5;;;4.41;;
50651;SDS011;66928;52.086;5.240;2023-03-01T14:58:52;5.11;;;3.9;;
50651;SDS011;66928;52.086;5.240;2023-03-01T15:02:12;4.91;;;3.9;;
50651;SDS011;66928;52.086;5.240;2023-03-01T15:03:52;5.3;;;3.7;;
50651;SDS011;66928;52.086;5.240;2023-03-01T15:05:30;5.5;;;3.9;;
50651;SDS011;66928;52.086;5.240;2023-03-01T15:07:09;4.61;;;4.1;;
50651;SDS011;66928;52.086;5.240;2023-03-01T15:10:29;5.3;;;4.0;;
50651;SDS011;66928;52.086;5.240;2023-03-01T15:12:24;5.6;;;4.0;;
50651;SDS011;66928;52.086;5.240;2023-03-01T15:14:48;5.5;;;4.2;;
50651;SDS011;66928;52.086;5.240;2023-03-01T15:16:26;6.2;;;4.1;;
50651;SDS011;66928;52.086;5.240;2023-03-01T15:18:12;5.5;;;3.8;;
50651;SDS011;66928;52.086;5.240;2023-03-01T15:19:52;5.6;;;4.5;;
50651;SDS011;66928;52.086;5.240;2023-03-01T15:23:12;4.0;;;3.6;;
50651;SDS011;66928;52.086;5.240;2023-03-01T15:24:56;4.91;;;4.1;;
50651;SDS011;66928;52.086;5.240;2023-03-01T15:26:35;6.7;;;4.0;;
50651;SDS011;66928;52.086;5.240;2023-03-01T15:28:17;4.2;;;3.8;;
50651;SDS011;66928;52.086;5.240;2023-03-01T15:29:56;4.8;;;4.0;;
50651;SDS011;66928;52.086;5.240;2023-03-01T15:33:16;5.2;;;4.0;;
50651;SDS011;66928;52.086;5.240;2023-03-01T15:35:32;5.4;;;4.2;;
50651;SDS011;66928;52.086;5.240;2023-03-01T15:37:36;4.5;;;4.1;;
50651;SDS011;66928;52.086;5.240;2023-03-01T15:39:52;4.61;;;4.1;;
50651;SDS011;66928;52.086;5.240;2023-03-01T15:41:30;5.0;;;4.0;;
50651;SDS011;66928;52.086;5.240;2023-03-01T15:43:36;6.2;;;4.1;;
50651;SDS011;66928;52.086;5.240;2023-03-01T15:45:20;4.61;;;4.1;;
50651;SDS011;66928;52.086;5.240;2023-03-01T15:46:59;4.61;;;4.2;;
50651;SDS011;66928;52.086;5.240;2023-03-01T15:50:16;5.5;;;4.0;;
50651;SDS011;66928;52.086;5.240;2023-03-01T15:51:56;6.5;;;4.0;;
50651;SDS011;66928;52.086;5.240;2023-03-01T15:53:32;4.5;;;4.0;;
50651;SDS011;66928;52.086;5.240;2023-03-01T15:55:14;5.0;;;4.0;;
50651;SDS011;66928;52.086;5.240;2023-03-01T15:58:29;6.6;;;4.1;;
50651;SDS011;66928;52.086;5.240;2023-03-01T16:00:08;5.11;;;4.0;;
50651;SDS011;66928;52.086;5.240;2023-03-01T16:01:47;5.8;;;4.1;;
50651;SDS011;66928;52.086;5.240;2023-03-01T16:03:25;4.91;;;3.9;;
50651;SDS011;66928;52.086;5.240;2023-03-01T16:06:38;4.91;;;3.8;;
50651;SDS011;66928;52.086;5.240;2023-03-01T16:08:14;5.4;;;4.2;;
50651;SDS011;66928;52.086;5.240;2023-03-01T16:09:52;5.4;;;4.61;;
50651;SDS011;66928;52.086;5.240;2023-03-01T16:13:04;5.11;;;4.61;;
50651;SDS011;66928;52.086;5.240;2023-03-01T16:14:41;5.0;;;4.5;;
50651;SDS011;66928;52.086;5.240;2023-03-01T16:16:18;5.0;;;4.5;;
50651;SDS011;66928;52.086;5.240;2023-03-01T16:19:31;6.8;;;4.3;;
50651;SDS011;66928;52.086;5.240;2023-03-01T16:21:10;7.5;;;4.8;;
50651;SDS011;66928;52.086;5.240;2023-03-01T16:22:49;6.7;;;4.91;;
50651;SDS011;66928;52.086;5.240;2023-03-01T16:24:26;5.0;;;4.5;;
50651;SDS011;66928;52.086;5.240;2023-03-01T16:27:41;6.1;;;4.91;;
50651;SDS011;66928;52.086;5.240;2023-03-01T16:29:18;5.8;;;4.7;;
50651;SDS011;66928;52.086;5.240;2023-03-01T16:30:54;7.0;;;5.0;;
50651;SDS011;66928;52.086;5.240;2023-03-01T16:34:06;6.5;;;4.8;;
50651;SDS011;66928;52.086;5.240;2023-03-01T16:35:43;6.8;;;4.5;;
50651;SDS011;66928;52.086;5.240;2023-03-01T16:37:19;6.0;;;4.5;;
50651;SDS011;66928;52.086;5.240;2023-03-01T16:40:34;5.8;;;4.8;;
50651;SDS011;66928;52.086;5.240;2023-03-01T16:42:10;7.4;;;4.61;;
50651;SDS011;66928;52.086;5.240;2023-03-01T16:43:46;5.7;;;4.5;;
50651;SDS011;66928;52.086;5.240;2023-03-01T16:45:23;6.0;;;4.8;;
50651;SDS011;66928;52.086;5.240;2023-03-01T16:48:36;6.9;;;4.91;;
50651;SDS011;66928;52.086;5.240;2023-03-01T16:50:13;6.7;;;5.11;;
50651;SDS011;66928;52.086;5.240;2023-03-01T16:51:49;6.0;;;4.7;;
50651;SDS011;66928;52.086;5.240;2023-03-01T16:55:03;8.31;;;5.11;;
50651;SDS011;66928;52.086;5.240;2023-03-01T16:56:40;7.9;;;5.0;;
50651;SDS011;66928;52.086;5.240;2023-03-01T16:58:17;5.2;;;4.7;;
50651;SDS011;66928;52.086;5.240;2023-03-01T16:59:53;6.1;;;4.8;;
50651;SDS011;66928;52.086;5.240;2023-03-01T17:03:05;5.6;;;4.8;;
50651;SDS011;66928;52.086;5.240;2023-03-01T17:04:41;7.3;;;5.11;;
50651;SDS011;66928;52.086;5.240;2023-03-01T17:06:18;6.5;;;4.8;;
50651;SDS011;66928;52.086;5.240;2023-03-01T17:09:34;7.5;;;5.11;;
50651;SDS011;66928;52.086;5.240;2023-03-01T17:11:12;6.0;;;4.91;;
50651;SDS011;66928;52.086;5.240;2023-03-01T17:12:50;5.5;;;4.7;;
50651;SDS011;66928;52.086;5.240;2023-03-01T17:16:03;6.4;;;4.8;;
50651;SDS011;66928;52.086;5.240;2023-03-01T17:17:40;5.6;;;4.8;;
50651;SDS011;66928;52.086;5.240;2023-03-01T17:19:17;6.8;;;5.0;;
50651;SDS011;66928;52.086;5.240;2023-03-01T17:20:53;7.2;;;5.3;;
50651;SDS011;66928;52.086;5.240;2023-03-01T17:24:05;6.9;;;5.11;;
50651;SDS011;66928;52.086;5.240;2023-03-01T17:25:42;5.9;;;4.7;;
50651;SDS011;66928;52.086;5.240;2023-03-01T17:27:18;6.8;;;4.91;;
50651;SDS011;66928;52.086;5.240;2023-03-01T17:30:31;5.4;;;4.8;;
50651;SDS011;66928;52.086;5.240;2023-03-01T17:32:07;8.0;;;4.7;;
50651;SDS011;66928;52.086;5.240;2023-03-01T17:33:44;6.8;;;4.91;;
50651;SDS011;66928;52.086;5.240;2023-03-01T17:36:56;6.6;;;5.0;;
50651;SDS011;66928;52.086;5.240;2023-03-01T17:38:33;6.0;;;4.8;;
50651;SDS011;66928;52.086;5.240;2023-03-01T17:40:11;6.2;;;5.2;;
50651;SDS011;66928;52.086;5.240;2023-03-01T17:41:48;7.6;;;5.3;;
50651;SDS011;66928;52.086;5.240;2023-03-01T17:45:00;7.9;;;5.2;;
50651;SDS011;66928;52.086;5.240;2023-03-01T17:46:37;6.6;;;5.11;;
50651;SDS011;66928;52.086;5.240;2023-03-01T17:48:13;7.1;;;5.3;;
50651;SDS011;66928;52.086;5.240;2023-03-01T17:51:27;8.5;;;5.2;;
50651;SDS011;66928;52.086;5.240;2023-03-01T17:53:03;6.3;;;4.91;;
50651;SDS011;66928;52.086;5.240;2023-03-01T17:54:39;6.6;;;5.0;;
50651;SDS011;66928;52.086;5.240;2023-03-01T17:57:52;6.7;;;5.0;;
50651;SDS011;66928;52.086;5.240;2023-03-01T17:59:28;6.5;;;4.7;;
50651;SDS011;66928;52.086;5.240;2023-03-01T18:01:06;6.5;;;4.91;;
50651;SDS011;66928;52.086;5.240;2023-03-01T18:02:46;6.0;;;5.2;;
50651;SDS011;66928;52.086;5.240;2023-03-01T18:05:58;7.7;;;5.7;;
50651;SDS011;66928;52.086;5.240;2023-03-01T18:07:35;7.5;;;5.7;;
50651;SDS011;66928;52.086;5.240;2023-03-01T18:09:12;6.9;;;5.4;;
50651;SDS011;66928;52.086;5.240;2023-03-01T18:12:24;6.8;;;5.5;;
50651;SDS011;66928;52.086;5.240;2023-03-01T18:14:00;6.1;;;5.0;;
50651;SDS011;66928;52.086;5.240;2023-03-01T18:15:37;9.4;;;5.8;;
50651;SDS011;66928;52.086;5.240;2023-03-01T18:18:51;9.4;;;5.8;;
50651;SDS011;66928;52.086;5.240;2023-03-01T18:20:29;7.3;;;5.9;;
50651;SDS011;66928;52.086;5.240;2023-03-01T18:22:05;7.4;;;5.3;;
50651;SDS011;66928;52.086;5.240;2023-03-01T18:23:42;8.4;;;5.4;;
50651;SDS011;66928;52.086;5.240;2023-03-01T18:26:54;8.9;;;5.9;;
50651;SDS011;66928;52.086;5.240;2023-03-01T18:28:31;6.5;;;5.8;;
50651;SDS011;66928;52.086;5.240;2023-03-01T18:30:08;7.1;;;5.5;;
50651;SDS011;66928;52.086;5.240;2023-03-01T18:33:24;8.81;;;5.7;;
50651;SDS011;66928;52.086;5.240;2023-03-01T18:35:01;8.6;;;5.9;;
50651;SDS011;66928;52.086;5.240;2023-03-01T18:36:37;7.8;;;6.0;;
50651;SDS011;66928;52.086;5.240;2023-03-01T18:38:13;7.8;;;6.0;;
50651;SDS011;66928;52.086;5.240;2023-03-01T18:41:27;8.1;;;6.1;;
50651;SDS011;66928;52.086;5.240;2023-03-01T18:43:04;7.8;;;5.8;;
50651;SDS011;66928;52.086;5.240;2023-03-01T18:44:40;8.81;;;5.9;;
50651;SDS011;66928;52.086;5.240;2023-03-01T18:47:52;7.4;;;5.9;;
50651;SDS011;66928;52.086;5.240;2023-03-01T18:49:28;7.4;;;5.5;;
50651;SDS011;66928;52.086;5.240;2023-03-01T18:51:06;8.81;;;6.2;;
50651;SDS011;66928;52.086;5.240;2023-03-01T18:54:21;8.71;;;5.7;;
50651;SDS011;66928;52.086;5.240;2023-03-01T18:55:58;8.71;;;5.7;;
50651;SDS011;66928;52.086;5.240;2023-03-01T18:57:34;8.2;;;6.1;;
50651;SDS011;66928;52.086;5.240;2023-03-01T18:59:11;6.7;;;5.8;;
50651;SDS011;66928;52.086;5.240;2023-03-01T19:02:24;8.2;;;6.5;;
50651;SDS011;66928;52.086;5.240;2023-03-01T19:04:00;7.4;;;5.7;;
50651;SDS011;66928;52.086;5.240;2023-03-01T19:05:36;7.2;;;6.0;;
50651;SDS011;66928;52.086;5.240;2023-03-01T19:08:52;7.8;;;6.0;;
50651;SDS011;66928;52.086;5.240;2023-03-01T19:10:29;10.4;;;7.2;;
50651;SDS011;66928;52.086;5.240;2023-03-01T19:12:06;8.4;;;6.5;;
50651;SDS011;66928;52.086;5.240;2023-03-01T19:15:20;8.81;;;6.7;;
50651;SDS011;66928;52.086;5.240;2023-03-01T19:16:56;7.5;;;6.3;;